createdAt,value
2022-09-26T00:01:16.186Z,100325.81
2022-09-26T00:03:45.044Z,100322.22
2022-09-26T00:06:12.409Z,100323.88
2022-09-26T00:08:39.805Z,100313.50
2022-09-26T00:11:08.866Z,100314.41
2022-09-26T00:13:37.473Z,100305.69
2022-09-26T00:16:04.634Z,100308.66
2022-09-26T00:18:31.057Z,100293.84
2022-09-26T00:21:08.993Z,100292.84
2022-09-26T00:23:36.239Z,100291.22
2022-09-26T00:26:03.646Z,100287.66
2022-09-26T00:28:30.197Z,100289.34
2022-09-26T00:30:56.716Z,100272.91
2022-09-26T00:33:24.179Z,100268.31
2022-09-26T00:35:52.222Z,100262.00
2022-09-26T00:38:19.396Z,100257.59
2022-09-26T00:40:46.717Z,100249.66
2022-09-26T00:43:37.016Z,100252.25
2022-09-26T00:46:16.702Z,100252.31
2022-09-26T00:48:46.041Z,100254.03
2022-09-26T00:51:12.593Z,100254.84
2022-09-26T00:53:44.209Z,100250.41
2022-09-26T00:56:32.417Z,100252.16
2022-09-26T00:59:35.005Z,100245.31
2022-09-26T01:02:02.512Z,100240.16
2022-09-26T01:04:33.230Z,100236.66
2022-09-26T01:07:03.055Z,100230.56
2022-09-26T01:09:31.008Z,100227.94
2022-09-26T01:12:00.494Z,100225.25
2022-09-26T01:14:27.630Z,100219.13
2022-09-26T01:16:56.295Z,100217.25
2022-09-26T01:19:29.215Z,100220.72
2022-09-26T01:22:10.969Z,100216.34
2022-09-26T01:25:05.187Z,100205.88
2022-09-26T01:28:08.825Z,100208.66
2022-09-26T01:30:46.124Z,100203.31
2022-09-26T01:33:49.651Z,100202.41
2022-09-26T01:36:45.194Z,100196.25
2022-09-26T01:39:54.651Z,100191.00
2022-09-26T01:42:59.998Z,100195.38
2022-09-26T01:45:37.066Z,100191.91
2022-09-26T01:48:06.255Z,100184.00
2022-09-26T01:50:51.338Z,100184.84
2022-09-26T01:53:44.255Z,100184.00
2022-09-26T01:56:20.087Z,100176.09
2022-09-26T01:58:53.393Z,100176.19
2022-09-26T02:01:24.393Z,100177.13
2022-09-26T02:03:58.480Z,100163.97
2022-09-26T02:06:32.289Z,100161.34
2022-09-26T02:09:10.551Z,100164.72
2022-09-26T02:11:41.199Z,100153.44
2022-09-26T02:14:13.307Z,100155.19
2022-09-26T02:16:45.004Z,100155.19
2022-09-26T02:19:24.115Z,100147.31
2022-09-26T02:21:51.065Z,100141.13
2022-09-26T02:24:17.706Z,100131.50
2022-09-26T02:26:44.251Z,100129.69
2022-09-26T02:29:13.908Z,100125.47
2022-09-26T02:31:48.567Z,100116.69
2022-09-26T02:34:15.178Z,100118.28
2022-09-26T02:36:41.821Z,100105.13
2022-09-26T02:39:10.776Z,100094.66
2022-09-26T02:41:50.772Z,100092.13
2022-09-26T02:44:51.400Z,100091.25
2022-09-26T02:47:30.863Z,100085.09
2022-09-26T02:50:26.671Z,100077.22
2022-09-26T02:53:31.688Z,100079.84
2022-09-26T02:55:58.030Z,100067.56
2022-09-26T02:59:00.675Z,100065.78
2022-09-26T03:01:48.465Z,100058.72
2022-09-26T03:04:30.982Z,100056.97
2022-09-26T03:07:04.296Z,100049.22
2022-09-26T03:09:31.117Z,100037.81
2022-09-26T03:12:01.919Z,100031.69
2022-09-26T03:14:31.365Z,100035.22
2022-09-26T03:16:58.860Z,100036.91
2022-09-26T03:19:43.767Z,100021.19
2022-09-26T03:22:10.423Z,100023.75
2022-09-26T03:24:37.218Z,100022.09
2022-09-26T03:27:05.813Z,100006.50
2022-09-26T03:29:32.875Z,100010.81
2022-09-26T03:32:01.125Z,100002.97
2022-09-26T03:34:27.693Z,99991.63
2022-09-26T03:36:54.974Z,99997.66
2022-09-26T03:39:21.473Z,99989.75
2022-09-26T03:41:48.544Z,99986.34
2022-09-26T03:44:15.801Z,99986.34
2022-09-26T03:46:45.052Z,99980.19
2022-09-26T03:49:12.202Z,99981.03
2022-09-26T03:51:38.746Z,99974.03
2022-09-26T03:54:05.191Z,99977.56
2022-09-26T03:56:31.942Z,99974.09
2022-09-26T03:58:58.327Z,99977.50
2022-09-26T04:01:24.878Z,99964.47
2022-09-26T04:03:51.542Z,99963.56
2022-09-26T04:06:19.767Z,99946.13
2022-09-26T04:08:48.967Z,99953.13
2022-09-26T04:11:19.117Z,99943.50
2022-09-26T04:13:51.777Z,99941.69
2022-09-26T04:16:20.697Z,99940.03
2022-09-26T04:18:47.833Z,99931.28
2022-09-26T04:21:14.766Z,99931.16
2022-09-26T04:23:42.435Z,99927.75
2022-09-26T04:26:21.660Z,99921.66
2022-09-26T04:28:50.872Z,99919.94
2022-09-26T04:31:17.844Z,99922.50
2022-09-26T04:33:45.142Z,99918.91
2022-09-26T04:36:14.063Z,99904.97
2022-09-26T04:38:41.070Z,99901.53
2022-09-26T04:41:13.688Z,99896.34
2022-09-26T04:43:41.212Z,99896.41
2022-09-26T04:46:09.685Z,99892.09
2022-09-26T04:48:36.369Z,99883.25
2022-09-26T04:51:07.336Z,99891.97
2022-09-26T04:53:34.561Z,99883.25
2022-09-26T04:56:01.583Z,99883.25
2022-09-26T04:58:28.288Z,99872.91
2022-09-26T05:00:54.721Z,99867.75
2022-09-26T05:03:21.203Z,99867.81
2022-09-26T05:05:47.613Z,99859.09
2022-09-26T05:08:14.696Z,99864.31
2022-09-26T05:10:42.309Z,99848.69
2022-09-26T05:13:09.561Z,99852.25
2022-09-26T05:15:39.851Z,99853.06
2022-09-26T05:18:08.494Z,99845.19
2022-09-26T05:20:35.738Z,99839.97
2022-09-26T05:23:03.738Z,99848.63
2022-09-26T05:25:56.517Z,99838.19
2022-09-26T05:28:24.091Z,99839.16
2022-09-26T05:30:51.801Z,99836.53
2022-09-26T05:33:20.103Z,99833.06
2022-09-26T05:35:55.500Z,99830.41
2022-09-26T05:38:21.918Z,99828.63
2022-09-26T05:40:57.561Z,99821.63
2022-09-26T05:43:29.617Z,99814.56
2022-09-26T05:46:00.463Z,99819.81
2022-09-26T05:48:29.211Z,99813.84
2022-09-26T05:50:56.003Z,99817.31
2022-09-26T05:53:22.669Z,99821.56
2022-09-26T05:55:50.508Z,99814.56
2022-09-26T05:58:20.893Z,99813.66
2022-09-26T06:00:47.937Z,99814.41
2022-09-26T06:03:15.439Z,99804.69
2022-09-26T06:05:42.670Z,99805.53
2022-09-26T06:08:10.855Z,99802.91
2022-09-26T06:10:41.093Z,99794.13
2022-09-26T06:13:07.860Z,99791.50
2022-09-26T06:15:34.359Z,99783.59
2022-09-26T06:18:04.362Z,99780.88
2022-09-26T06:20:32.441Z,99765.91
2022-09-26T06:23:01.085Z,99767.53
2022-09-26T06:25:28.100Z,99764.03
2022-09-26T06:27:59.984Z,99761.41
2022-09-26T06:30:27.193Z,99762.22
2022-09-26T06:32:54.095Z,99756.06
2022-09-26T06:35:21.707Z,99761.28
2022-09-26T06:37:48.375Z,99754.22
2022-09-26T06:40:15.554Z,99749.84
2022-09-26T06:42:43.376Z,99752.34
2022-09-26T06:45:11.001Z,99730.50
2022-09-26T06:47:37.635Z,99732.25
2022-09-26T06:50:04.768Z,99730.41
2022-09-26T06:52:34.652Z,99725.97
2022-09-26T06:55:03.292Z,99728.47
2022-09-26T06:57:37.553Z,99714.34
2022-09-26T07:00:04.586Z,99716.84
2022-09-26T07:02:31.229Z,99717.63
2022-09-26T07:04:57.763Z,99717.53
2022-09-26T07:07:24.170Z,99714.03
2022-09-26T07:09:51.417Z,99707.94
2022-09-26T07:12:17.893Z,99711.34
2022-09-26T07:14:44.400Z,99705.19
2022-09-26T07:17:17.939Z,99704.22
2022-09-26T07:19:44.823Z,99698.94
2022-09-26T07:22:11.644Z,99700.69
2022-09-26T07:24:38.061Z,99704.13
2022-09-26T07:27:04.615Z,99694.47
2022-09-26T07:29:31.066Z,99698.88
2022-09-26T07:31:59.138Z,99684.84
2022-09-26T07:34:25.891Z,99687.53
2022-09-26T07:36:52.902Z,99682.28
2022-09-26T07:39:19.336Z,99680.53
2022-09-26T07:41:46.544Z,99681.38
2022-09-26T07:47:36.086Z,99682.16
2022-09-26T07:50:11.214Z,99676.06
2022-09-26T07:52:37.701Z,99669.19
2022-09-26T07:55:04.638Z,99671.81
2022-09-26T07:57:35.475Z,99664.03
2022-09-26T08:00:07.887Z,99658.81
2022-09-26T08:02:35.746Z,99657.88
2022-09-26T08:05:03.907Z,99660.47
2022-09-26T08:07:31.973Z,99650.84
2022-09-26T08:09:59.042Z,99655.16
2022-09-26T08:12:26.981Z,99649.84
2022-09-26T08:14:53.530Z,99656.78
2022-09-26T08:17:20.472Z,99652.53
2022-09-26T08:19:46.946Z,99653.44
2022-09-26T08:22:14.476Z,99653.56
2022-09-26T08:24:41.180Z,99650.00
2022-09-26T08:27:07.697Z,99653.56
2022-09-26T08:29:34.995Z,99653.56
2022-09-26T08:32:03.303Z,99650.16
2022-09-26T08:34:32.013Z,99654.72
2022-09-26T08:36:58.609Z,99652.16
2022-09-26T08:39:28.006Z,99652.16
2022-09-26T08:42:18.048Z,99646.97
2022-09-26T08:44:47.803Z,99654.00
2022-09-26T08:47:53.233Z,99640.16
2022-09-26T08:50:57.526Z,99639.31
2022-09-26T08:53:35.821Z,99631.63
2022-09-26T08:56:11.279Z,99635.16
2022-09-26T08:58:40.959Z,99640.41
2022-09-26T09:01:15.337Z,99629.00
2022-09-26T09:04:08.327Z,99634.25
2022-09-26T09:06:35.526Z,99629.06
2022-09-26T09:09:01.967Z,99621.28
2022-09-26T09:11:57.938Z,99619.50
2022-09-26T09:14:33.391Z,99621.34
2022-09-26T09:17:28.146Z,99618.75
2022-09-26T09:20:25.857Z,99613.50
2022-09-26T09:23:17.028Z,99616.94
2022-09-26T09:29:32.627Z,99600.09
2022-09-26T09:32:02.083Z,99604.41
2022-09-26T09:34:33.269Z,99600.84
2022-09-26T09:37:07.438Z,99585.38
2022-09-26T09:39:36.903Z,99586.38
2022-09-26T09:42:41.604Z,99580.38
2022-09-26T09:45:23.697Z,99583.13
2022-09-26T09:47:50.260Z,99582.91
2022-09-26T09:50:32.750Z,99580.25
2022-09-26T09:53:30.382Z,99575.72
2022-09-26T09:56:02.825Z,99566.78
2022-09-26T09:58:35.277Z,99559.78
2022-09-26T10:01:33.746Z,99553.59
2022-09-26T10:04:11.497Z,99554.38
2022-09-26T10:06:45.314Z,99543.78
2022-09-26T10:09:41.246Z,99535.91
2022-09-26T10:12:19.176Z,99529.25
2022-09-26T10:14:56.330Z,99530.72
2022-09-26T10:17:23.984Z,99519.22
2022-09-26T10:19:51.300Z,99511.22
2022-09-26T10:22:44.057Z,99502.44
2022-09-26T10:25:25.622Z,99505.84
2022-09-26T10:27:57.287Z,99500.47
2022-09-26T10:30:32.195Z,99486.38
2022-09-26T10:33:01.265Z,99483.75
2022-09-26T10:35:40.530Z,99473.13
2022-09-26T10:38:18.700Z,99473.94
2022-09-26T10:40:55.236Z,99467.63
2022-09-26T10:43:31.947Z,99469.31
2022-09-26T10:46:12.982Z,99463.97
2022-09-26T10:48:48.918Z,99456.97
2022-09-26T10:51:31.791Z,99448.25
2022-09-26T10:54:10.300Z,99450.56
2022-09-26T10:56:47.377Z,99453.09
2022-09-26T10:59:17.307Z,99453.03
2022-09-26T11:01:48.663Z,99450.13
2022-09-26T11:04:40.674Z,99441.97
2022-09-26T11:07:10.131Z,99435.88
2022-09-26T11:09:38.414Z,99433.13
2022-09-26T11:12:26.195Z,99429.38
2022-09-26T11:14:59.054Z,99417.75
2022-09-26T11:17:45.069Z,99413.84
2022-09-26T11:20:40.656Z,99412.56
2022-09-26T11:23:17.575Z,99405.75
2022-09-26T11:25:43.964Z,99404.63
2022-09-26T11:28:39.123Z,99400.16
2022-09-26T11:31:19.155Z,99393.97
2022-09-26T11:33:45.900Z,99389.66
2022-09-26T11:36:28.771Z,99388.88
2022-09-26T11:39:12.489Z,99386.41
2022-09-26T11:41:57.904Z,99382.06
2022-09-26T11:44:27.028Z,99375.84
2022-09-26T11:47:02.512Z,99372.19
2022-09-26T11:50:03.191Z,99364.16
2022-09-26T11:52:49.525Z,99357.63
2022-09-26T11:55:50.557Z,99355.56
2022-09-26T11:58:49.291Z,99353.25
2022-09-26T12:01:35.476Z,99342.47
2022-09-26T12:04:15.721Z,99336.91
2022-09-26T12:06:56.059Z,99339.38
2022-09-26T12:09:47.314Z,99327.88
2022-09-26T12:12:41.799Z,99325.47
2022-09-26T12:15:26.576Z,99321.91
2022-09-26T12:18:05.484Z,99319.38
2022-09-26T12:20:43.498Z,99321.22
2022-09-26T12:23:14.162Z,99307.31
2022-09-26T12:26:17.882Z,99315.25
2022-09-26T12:29:15.040Z,99304.84
2022-09-26T12:32:14.757Z,99303.22
2022-09-26T12:34:55.645Z,99293.66
2022-09-26T12:37:57.440Z,99300.91
2022-09-26T12:40:51.052Z,99299.38
2022-09-26T12:43:55.386Z,99290.66
2022-09-26T12:46:39.530Z,99283.22
2022-09-26T12:49:42.038Z,99286.84
2022-09-26T12:52:14.643Z,99287.00
2022-09-26T12:55:25.776Z,99286.69
2022-09-26T12:58:00.575Z,99293.72
2022-09-26T13:00:40.637Z,99294.56
2022-09-26T13:03:44.549Z,99291.56
2022-09-26T13:06:25.598Z,99300.25
2022-09-26T13:09:25.856Z,99297.53
2022-09-26T13:12:16.755Z,99282.66
2022-09-26T13:15:00.673Z,99287.91
2022-09-26T13:17:40.125Z,99284.50
2022-09-26T13:20:19.632Z,99278.47
2022-09-26T13:22:55.204Z,99275.34
2022-09-26T13:25:38.047Z,99276.06
2022-09-26T13:28:15.168Z,99272.72
2022-09-26T13:30:48.138Z,99266.50
2022-09-26T13:33:39.709Z,99265.59
2022-09-26T13:36:09.388Z,99269.06
2022-09-26T13:38:54.509Z,99263.94
2022-09-26T13:41:29.959Z,99257.84
2022-09-26T13:44:11.939Z,99257.00
2022-09-26T13:47:01.804Z,99255.28
2022-09-26T13:49:43.541Z,99247.41
2022-09-26T13:52:28.599Z,99252.66
2022-09-26T13:54:58.021Z,99239.72
2022-09-26T13:57:43.509Z,99238.03
2022-09-26T14:00:26.025Z,99238.94
2022-09-26T14:03:15.373Z,99241.41
2022-09-26T14:05:41.959Z,99230.91
2022-09-26T14:08:39.344Z,99236.38
2022-09-26T14:11:15.273Z,99232.06
2022-09-26T14:13:41.718Z,99234.53
2022-09-26T14:16:27.022Z,99235.53
2022-09-26T14:19:32.895Z,99230.16
2022-09-26T14:22:25.650Z,99221.56
2022-09-26T14:24:58.277Z,99226.13
2022-09-26T14:27:25.849Z,99217.31
2022-09-26T14:29:59.067Z,99214.00
2022-09-26T14:32:28.457Z,99210.38
2022-09-26T14:35:01.692Z,99205.34
2022-09-26T14:37:39.218Z,99206.16
2022-09-26T14:40:24.491Z,99193.88
2022-09-26T14:43:00.161Z,99194.72
2022-09-26T14:46:08.441Z,99185.53
2022-09-26T14:48:38.129Z,99168.34
2022-09-26T14:51:04.807Z,99174.38
2022-09-26T14:53:34.292Z,99168.28
2022-09-26T14:56:12.123Z,99169.88
2022-09-26T14:58:38.531Z,99167.25
2022-09-26T15:01:13.867Z,99153.47
2022-09-26T15:03:41.095Z,99156.19
2022-09-26T15:06:13.334Z,99145.78
2022-09-26T15:08:40.137Z,99142.31
2022-09-26T15:11:06.980Z,99136.22
2022-09-26T15:13:39.133Z,99140.72
2022-09-26T15:16:20.841Z,99132.88
2022-09-26T15:18:56.549Z,99132.03
2022-09-26T15:21:35.097Z,99134.56
2022-09-26T15:24:21.516Z,99129.47
2022-09-26T15:26:49.426Z,99130.53
2022-09-26T15:29:17.289Z,99126.94
2022-09-26T15:31:45.215Z,99128.72
2022-09-26T15:34:16.907Z,99126.84
2022-09-26T15:36:56.375Z,99117.97
2022-09-26T15:39:25.780Z,99126.63
2022-09-26T15:42:10.855Z,99122.31
2022-09-26T15:44:47.951Z,99121.47
2022-09-26T15:47:44.027Z,99118.84
2022-09-26T15:50:32.007Z,99102.25
2022-09-26T15:53:04.203Z,99094.38
2022-09-26T15:55:42.412Z,99097.09
2022-09-26T15:58:15.708Z,99094.47
2022-09-26T16:00:46.270Z,99091.09
2022-09-26T16:03:45.393Z,99097.34
2022-09-26T16:06:30.672Z,99094.75
2022-09-26T16:09:04.224Z,99091.38
2022-09-26T16:11:32.785Z,99089.69
2022-09-26T16:14:00.129Z,99091.53
2022-09-26T16:16:31.907Z,99083.75
2022-09-26T16:19:03.038Z,99081.19
2022-09-26T16:21:33.758Z,99085.53
2022-09-26T16:24:22.402Z,99076.03
2022-09-26T16:26:51.231Z,99076.88
2022-09-26T16:29:34.565Z,99062.84
2022-09-26T16:32:04.841Z,99065.47
2022-09-26T16:34:32.110Z,99062.91
2022-09-26T16:36:58.798Z,99054.13
2022-09-26T16:39:27.672Z,99051.59
2022-09-26T16:42:01.765Z,99047.44
2022-09-26T16:44:36.603Z,99045.66
2022-09-26T16:47:06.703Z,99039.56
2022-09-26T16:49:45.608Z,99035.19
2022-09-26T16:52:29.364Z,99029.09
2022-09-26T16:54:58.614Z,99026.47
2022-09-26T16:57:25.130Z,99023.75
2022-09-26T16:59:52.996Z,99022.91
2022-09-26T17:02:20.855Z,99024.63
2022-09-26T17:04:48.467Z,99021.34
2022-09-26T17:07:16.024Z,99017.06
2022-09-26T17:09:43.971Z,99019.59
2022-09-26T17:12:19.460Z,99011.03
2022-09-26T17:14:49.672Z,99010.28
2022-09-26T17:17:28.225Z,99003.19
2022-09-26T17:19:59.115Z,99011.97
2022-09-26T17:22:27.336Z,99005.03
2022-09-26T17:24:54.252Z,99001.50
2022-09-26T17:27:32.598Z,99006.66
2022-09-26T17:30:01.481Z,98992.78
2022-09-26T17:32:33.771Z,98997.19
2022-09-26T17:35:12.201Z,99003.34
2022-09-26T17:37:39.084Z,98994.56
2022-09-26T17:40:13.045Z,98991.00
2022-09-26T17:42:39.523Z,98991.84
2022-09-26T17:45:06.959Z,98983.91
2022-09-26T17:47:33.406Z,98983.38
2022-09-26T17:49:59.866Z,98977.13
2022-09-26T17:52:31.141Z,98973.72
2022-09-26T17:55:02.229Z,98971.09
2022-09-26T17:57:37.189Z,98972.97
2022-09-26T18:00:11.062Z,98978.28
2022-09-26T18:02:43.560Z,98971.28
2022-09-26T18:05:22.791Z,98970.50
2022-09-26T18:07:52.503Z,98970.50
2022-09-26T18:10:23.058Z,98967.72
2022-09-26T18:12:56.607Z,98963.41
2022-09-26T18:15:25.539Z,98965.94
2022-09-26T18:17:52.798Z,98959.88
2022-09-26T18:20:23.105Z,98952.94
2022-09-26T18:22:51.979Z,98955.47
2022-09-26T18:25:21.845Z,98950.22
2022-09-26T18:27:53.735Z,98946.75
2022-09-26T18:30:21.638Z,98947.69
2022-09-26T18:32:52.981Z,98945.91
2022-09-26T18:35:27.691Z,98958.16
2022-09-26T18:37:55.943Z,98955.63
2022-09-26T18:40:28.920Z,98954.78
2022-09-26T18:42:57.719Z,98950.38
2022-09-26T18:45:35.835Z,98944.31
2022-09-26T18:48:15.897Z,98938.13
2022-09-26T18:50:42.850Z,98947.84
2022-09-26T18:53:20.910Z,98938.34
2022-09-26T18:56:06.374Z,98943.53
2022-09-26T18:58:33.907Z,98950.94
2022-09-26T19:01:05.432Z,98950.94
2022-09-26T19:03:35.665Z,98949.25
2022-09-26T19:06:05.958Z,98943.84
2022-09-26T19:08:38.115Z,98946.22
2022-09-26T19:11:16.306Z,98936.44
2022-09-26T19:13:44.521Z,98938.13
2022-09-26T19:16:11.802Z,98935.53
2022-09-26T19:18:38.750Z,98932.91
2022-09-26T19:21:13.258Z,98937.03
2022-09-26T19:23:39.918Z,98932.97
2022-09-26T19:26:07.590Z,98939.81
2022-09-26T19:28:36.190Z,98935.59
2022-09-26T19:31:03.997Z,98929.34
2022-09-26T19:33:30.994Z,98932.91
2022-09-26T19:35:57.704Z,98934.59
2022-09-26T19:38:26.782Z,98926.81
2022-09-26T19:40:53.908Z,98930.28
2022-09-26T19:43:21.464Z,98922.34
2022-09-26T19:45:52.274Z,98924.97
2022-09-26T19:48:21.901Z,98924.97
2022-09-26T19:50:48.948Z,98917.09
2022-09-26T19:53:17.742Z,98914.41
2022-09-26T19:55:47.336Z,98922.25
2022-09-26T19:58:18.158Z,98911.94
2022-09-26T20:00:48.849Z,98907.72
2022-09-26T20:03:17.936Z,98908.41
2022-09-26T20:05:46.399Z,98910.09
2022-09-26T20:08:16.865Z,98902.47
2022-09-26T20:10:43.962Z,98910.34
2022-09-26T20:13:10.695Z,98906.88
2022-09-26T20:15:37.452Z,98905.16
2022-09-26T20:18:07.117Z,98904.25
2022-09-26T20:20:35.867Z,98897.25
2022-09-26T20:23:02.515Z,98905.94
2022-09-26T20:25:31.830Z,98900.78
2022-09-26T20:27:59.527Z,98901.00
2022-09-26T20:30:45.768Z,98903.63
2022-09-26T20:33:13.186Z,98900.25
2022-09-26T20:35:43.429Z,98896.69
2022-09-26T20:38:31.015Z,98892.31
2022-09-26T20:41:21.419Z,98886.06
2022-09-26T20:43:52.839Z,98885.97
2022-09-26T20:46:21.959Z,98883.22
2022-09-26T20:48:49.551Z,98886.75
2022-09-26T20:51:20.939Z,98886.75
2022-09-26T20:53:47.433Z,98889.28
2022-09-26T20:56:16.947Z,98888.47
2022-09-26T20:58:44.249Z,98884.06
2022-09-26T21:01:15.474Z,98882.75
2022-09-26T21:03:52.031Z,98888.22
2022-09-26T21:06:21.150Z,98885.59
2022-09-26T21:08:48.093Z,98877.59
2022-09-26T21:11:17.230Z,98879.97
2022-09-26T21:13:43.804Z,98883.59
2022-09-26T21:16:21.796Z,98881.75
2022-09-26T21:18:51.278Z,98872.28
2022-09-26T21:21:30.330Z,98878.38
2022-09-26T21:23:59.427Z,98881.06
2022-09-26T21:26:28.202Z,98873.28
2022-09-26T21:28:56.002Z,98863.56
2022-09-26T21:31:25.079Z,98865.44
2022-09-26T21:33:52.176Z,98858.41
2022-09-26T21:36:21.154Z,98857.72
2022-09-26T21:38:51.425Z,98857.78
2022-09-26T21:41:18.704Z,98866.31
2022-09-26T21:43:50.616Z,98863.72
2022-09-26T21:46:17.522Z,98862.03
2022-09-26T21:48:44.172Z,98851.72
2022-09-26T21:51:12.860Z,98848.09
2022-09-26T21:53:45.844Z,98846.47
2022-09-26T21:56:21.909Z,98844.78
2022-09-26T21:58:49.383Z,98845.78
2022-09-26T22:01:15.923Z,98848.56
2022-09-26T22:03:42.567Z,98852.19
2022-09-26T22:06:09.976Z,98842.38
2022-09-26T22:08:37.624Z,98842.78
2022-09-26T22:11:05.120Z,98843.69
2022-09-26T22:13:32.984Z,98837.47
2022-09-26T22:16:11.262Z,98842.72
2022-09-26T22:18:40.039Z,98836.69
2022-09-26T22:21:08.457Z,98841.41
2022-09-26T22:23:35.422Z,98835.38
2022-09-26T22:26:02.560Z,98844.03
2022-09-26T22:28:29.438Z,98833.69
2022-09-26T22:30:56.373Z,98840.78
2022-09-26T22:33:23.099Z,98835.72
2022-09-26T22:35:50.485Z,98831.22
2022-09-26T22:38:18.228Z,98839.69
2022-09-26T22:40:45.402Z,98831.00
2022-09-26T22:43:11.931Z,98818.91
2022-09-26T22:45:38.441Z,98828.63
2022-09-26T22:48:04.936Z,98833.09
2022-09-26T22:50:31.432Z,98828.91
2022-09-26T22:52:59.060Z,98841.06
2022-09-26T22:55:25.669Z,98836.84
2022-09-26T22:57:52.483Z,98835.06
2022-09-26T23:00:18.989Z,98832.53
2022-09-26T23:02:45.508Z,98836.16
2022-09-26T23:05:12.050Z,98833.84
2022-09-26T23:07:38.501Z,98839.84
2022-09-26T23:10:05.243Z,98850.59
2022-09-26T23:12:32.411Z,98850.47
2022-09-26T23:14:58.920Z,98848.06
2022-09-26T23:17:25.534Z,98842.81
2022-09-26T23:19:52.292Z,98842.16
2022-09-26T23:22:18.814Z,98838.59
2022-09-26T23:24:45.295Z,98844.00
2022-09-26T23:27:11.985Z,98844.03
2022-09-26T23:29:38.436Z,98845.81
2022-09-26T23:32:05.068Z,98845.81
2022-09-26T23:34:31.537Z,98848.50
2022-09-26T23:36:58.074Z,98846.81
2022-09-26T23:39:24.559Z,98851.03
2022-09-26T23:41:51.008Z,98848.31
2022-09-26T23:44:17.462Z,98851.38
2022-09-26T23:46:44.459Z,98858.41
2022-09-26T23:49:10.963Z,98861.81
2022-09-26T23:51:37.428Z,98859.41
2022-09-26T23:54:04.147Z,98857.66
2022-09-26T23:56:30.600Z,98856.03
2022-09-26T23:58:57.453Z,98866.56
